Time;durP1;ratioP1;P1;durP2;ratioP2;P2;SDS_P1;SDS_P2;PMS_P1;PMS_P2;Temp;Humidity;BMP_temperature;BMP_pressure;BME280_temperature;BME280_humidity;BME280_pressure;Samples;Min_cycle;Max_cycle;Signal;HPM_P1;HPM_P2
2023/07/13 00:00:11;;;;;;;;;;;26.90;58.40;;;;;;5093987;28;19924;-59
2023/07/13 00:02:38;;;;;;;;;;;26.90;58.40;;;;;;5094185;28;20328;-58
2023/07/13 00:05:06;;;;;;;;;;;26.90;58.40;;;;;;5093296;28;19928;-59
2023/07/13 00:07:33;;;;;;;;;;;26.90;58.40;;;;;;5093706;28;19924;-58
2023/07/13 00:10:00;;;;;;;;;;;26.90;58.40;;;;;;5093543;28;19993;-58
2023/07/13 00:12:29;;;;;;;;;;;26.90;58.40;;;;;;5093627;28;19970;-58
2023/07/13 00:15:00;;;;;;;;;;;26.90;58.40;;;;;;5093614;28;19981;-59
2023/07/13 00:17:27;;;;;;;;;;;26.90;58.40;;;;;;5093342;28;19926;-59
2023/07/13 00:19:55;;;;;;;;;;;26.90;58.50;;;;;;5093788;28;19989;-59
2023/07/13 00:22:25;;;;;;;;;;;26.90;58.50;;;;;;5093385;28;19950;-59
2023/07/13 00:24:53;;;;;;;;;;;26.90;58.40;;;;;;5091925;28;19928;-59
2023/07/13 00:27:20;;;;;;;;;;;26.90;58.40;;;;;;5092721;28;20366;-59
2023/07/13 00:29:47;;;;;;;;;;;26.90;58.40;;;;;;5093781;28;20002;-59
2023/07/13 00:32:14;;;;;;;;;;;26.90;58.50;;;;;;5093598;28;20019;-58
2023/07/13 00:34:41;;;;;;;;;;;26.90;58.40;;;;;;5093913;28;20018;-58
2023/07/13 00:37:07;;;;;;;;;;;26.90;58.40;;;;;;5093209;28;19985;-58
2023/07/13 00:39:34;;;;;;;;;;;26.90;58.40;;;;;;5093710;28;20072;-58
2023/07/13 00:42:02;;;;;;;;;;;26.90;58.40;;;;;;5092951;28;19944;-58
2023/07/13 00:44:30;;;;;;;;;;;26.90;58.40;;;;;;5093088;28;19959;-58
2023/07/13 00:46:58;;;;;;;;;;;26.90;58.40;;;;;;5093661;28;19993;-58
2023/07/13 00:49:27;;;;;;;;;;;26.90;58.50;;;;;;5093449;28;19924;-58
2023/07/13 00:51:56;;;;;;;;;;;26.90;58.40;;;;;;5093116;28;19978;-58
2023/07/13 00:54:24;;;;;;;;;;;26.90;58.40;;;;;;5093178;28;19928;-58
2023/07/13 00:56:53;;;;;;;;;;;26.90;58.30;;;;;;5093262;28;19924;-58
2023/07/13 00:59:21;;;;;;;;;;;26.90;58.30;;;;;;5093203;28;20395;-58
2023/07/13 01:01:48;;;;;;;;;;;26.90;58.30;;;;;;5092926;28;19924;-58
2023/07/13 01:04:16;;;;;;;;;;;26.90;58.30;;;;;;5092993;28;20311;-58
2023/07/13 01:06:43;;;;;;;;;;;26.90;58.30;;;;;;5092094;28;20023;-58
2023/07/13 01:09:11;;;;;;;;;;;26.90;58.40;;;;;;5093399;28;19924;-58
2023/07/13 01:11:39;;;;;;;;;;;26.90;58.30;;;;;;5112729;28;19970;-58
2023/07/13 01:14:06;;;;;;;;;;;26.90;58.30;;;;;;5113465;28;19927;-59
2023/07/13 01:16:34;;;;;;;;;;;26.90;58.30;;;;;;5113125;28;19959;-58
2023/07/13 01:19:01;;;;;;;;;;;26.90;58.30;;;;;;5113234;28;19950;-59
2023/07/13 01:21:30;;;;;;;;;;;26.90;58.30;;;;;;5113309;28;19967;-58
2023/07/13 01:23:57;;;;;;;;;;;26.90;58.40;;;;;;5113319;28;20337;-58
2023/07/13 01:26:24;;;;;;;;;;;26.90;58.40;;;;;;5113286;28;19924;-58
2023/07/13 01:28:51;;;;;;;;;;;26.90;58.40;;;;;;5113050;28;20010;-59
2023/07/13 01:31:18;;;;;;;;;;;26.90;58.40;;;;;;5113621;28;19993;-59
2023/07/13 01:33:45;;;;;;;;;;;26.90;59.00;;;;;;5113182;28;19924;-59
2023/07/13 01:36:12;;;;;;;;;;;26.80;58.30;;;;;;5113650;28;19955;-58
2023/07/13 01:38:39;;;;;;;;;;;26.80;58.40;;;;;;5113724;28;19931;-59
2023/07/13 01:41:09;;;;;;;;;;;26.80;58.30;;;;;;5116871;28;20362;-58
2023/07/13 01:43:36;;;;;;;;;;;26.80;58.30;;;;;;5116400;28;20043;-59
2023/07/13 01:46:03;;;;;;;;;;;26.80;58.40;;;;;;5106742;28;20003;-58
2023/07/13 01:48:47;;;;;;;;;;;26.80;58.30;;;;;;5096083;28;19924;-58
2023/07/13 01:51:15;;;;;;;;;;;26.80;58.30;;;;;;5096620;28;19990;-58
2023/07/13 01:53:42;;;;;;;;;;;26.80;58.40;;;;;;5095380;28;20018;-58
2023/07/13 01:56:09;;;;;;;;;;;26.80;58.40;;;;;;5095821;28;19927;-58
2023/07/13 01:58:36;;;;;;;;;;;26.80;58.40;;;;;;5095888;28;19930;-58
2023/07/13 02:01:03;;;;;;;;;;;26.80;58.40;;;;;;5096347;28;19930;-58
2023/07/13 02:03:30;;;;;;;;;;;26.80;58.40;;;;;;5095310;28;19978;-58
2023/07/13 02:05:57;;;;;;;;;;;26.80;58.30;;;;;;5095640;28;19924;-59
2023/07/13 02:08:24;;;;;;;;;;;26.80;58.30;;;;;;5096035;28;19924;-58
2023/07/13 02:10:51;;;;;;;;;;;26.80;58.40;;;;;;5096067;28;20019;-58
2023/07/13 02:13:18;;;;;;;;;;;26.80;58.40;;;;;;5095852;28;20292;-58
2023/07/13 02:15:45;;;;;;;;;;;26.80;58.40;;;;;;5095800;28;19966;-58
2023/07/13 02:18:17;;;;;;;;;;;26.80;58.40;;;;;;5095691;28;19932;-58
2023/07/13 02:20:44;;;;;;;;;;;26.80;58.40;;;;;;5096125;28;19946;-59
2023/07/13 02:23:11;;;;;;;;;;;26.80;58.40;;;;;;5095273;28;19924;-58
2023/07/13 02:25:38;;;;;;;;;;;26.80;58.40;;;;;;5095848;28;19969;-58
2023/07/13 02:28:05;;;;;;;;;;;26.80;58.40;;;;;;5095810;28;19924;-59
2023/07/13 02:30:34;;;;;;;;;;;26.70;58.40;;;;;;5095923;28;20284;-58
2023/07/13 02:33:00;;;;;;;;;;;26.80;58.90;;;;;;5095613;28;19928;-58
2023/07/13 02:35:28;;;;;;;;;;;26.70;58.40;;;;;;5095771;28;20342;-59
2023/07/13 02:37:55;;;;;;;;;;;26.70;58.40;;;;;;5095604;28;19932;-58
2023/07/13 02:40:22;;;;;;;;;;;26.70;58.40;;;;;;5095088;28;20426;-58
2023/07/13 02:42:49;;;;;;;;;;;26.80;58.40;;;;;;5095425;28;20018;-58
2023/07/13 02:45:16;;;;;;;;;;;26.80;58.40;;;;;;5095658;28;19931;-58
2023/07/13 02:47:43;;;;;;;;;;;26.80;58.40;;;;;;5095414;28;20006;-58
2023/07/13 02:50:10;;;;;;;;;;;26.80;58.50;;;;;;5095218;28;19930;-58
2023/07/13 02:52:37;;;;;;;;;;;26.80;58.40;;;;;;5095077;28;20334;-58
2023/07/13 02:55:04;;;;;;;;;;;26.70;58.30;;;;;;5094768;28;19924;-59
2023/07/13 02:57:32;;;;;;;;;;;26.80;58.40;;;;;;5095316;28;19993;-58
2023/07/13 03:00:00;;;;;;;;;;;26.70;58.30;;;;;;5095318;28;20346;-58
2023/07/13 03:02:28;;;;;;;;;;;26.80;58.40;;;;;;5095030;28;20288;-58
2023/07/13 03:04:55;;;;;;;;;;;26.80;58.90;;;;;;5094893;28;19924;-58
2023/07/13 03:07:22;;;;;;;;;;;26.80;58.40;;;;;;5094706;28;20019;-58
2023/07/13 03:09:53;;;;;;;;;;;26.80;58.50;;;;;;5094676;28;20388;-58
2023/07/13 03:12:20;;;;;;;;;;;26.80;58.30;;;;;;5094416;28;19977;-58
2023/07/13 03:14:47;;;;;;;;;;;26.80;58.30;;;;;;5094460;28;19959;-59
2023/07/13 03:17:14;;;;;;;;;;;26.80;58.30;;;;;;5094840;28;19932;-59
2023/07/13 03:19:41;;;;;;;;;;;26.80;58.30;;;;;;5094837;28;19931;-59
2023/07/13 03:22:08;;;;;;;;;;;26.80;58.30;;;;;;5094756;28;19970;-58
2023/07/13 03:24:35;;;;;;;;;;;26.80;58.20;;;;;;5094327;28;19925;-58
2023/07/13 03:27:05;;;;;;;;;;;26.80;58.20;;;;;;5094442;28;19971;-59
2023/07/13 03:29:32;;;;;;;;;;;26.80;58.30;;;;;;5094144;28;19947;-58
2023/07/13 03:31:59;;;;;;;;;;;26.80;58.40;;;;;;5094240;28;19970;-59
2023/07/13 03:41:10;;;;;;;;;;;26.80;58.40;;;;;;5102625;28;19935;-58
2023/07/13 03:43:37;;;;;;;;;;;26.80;58.30;;;;;;5093854;28;19979;-58
2023/07/13 03:46:04;;;;;;;;;;;26.80;58.30;;;;;;5094179;28;19924;-58
2023/07/13 03:48:31;;;;;;;;;;;26.80;58.30;;;;;;5094461;28;19931;-58
2023/07/13 03:50:58;;;;;;;;;;;26.80;58.20;;;;;;5094169;28;19950;-58
2023/07/13 03:53:24;;;;;;;;;;;26.80;58.20;;;;;;5094250;28;19959;-58
2023/07/13 04:47:31;;;;;;;;;;;26.70;58.50;;;;;;5071982;28;20440;-58
2023/07/13 04:50:58;;;;;;;;;;;26.60;58.40;;;;;;5079810;28;20331;-58
2023/07/13 04:53:52;;;;;;;;;;;26.60;58.40;;;;;;5094182;28;19945;-58
2023/07/13 04:56:26;;;;;;;;;;;26.50;58.60;;;;;;5113184;28;19923;-58
2023/07/13 04:58:53;;;;;;;;;;;26.30;58.90;;;;;;5077182;28;19931;-58
2023/07/13 05:01:20;;;;;;;;;;;26.10;59.50;;;;;;5083431;28;19963;-58
2023/07/13 05:03:47;;;;;;;;;;;25.80;60.00;;;;;;5091854;28;20019;-58
2023/07/13 05:06:14;;;;;;;;;;;25.60;60.60;;;;;;5071439;28;20023;-58
2023/07/13 05:08:41;;;;;;;;;;;25.40;60.20;;;;;;5082197;28;19971;-59
2023/07/13 05:11:09;;;;;;;;;;;25.10;60.00;;;;;;5089540;28;19931;-58
2023/07/13 05:13:36;;;;;;;;;;;25.00;60.00;;;;;;5094827;28;20014;-58
2023/07/13 05:16:07;;;;;;;;;;;24.80;59.90;;;;;;5086346;28;19964;-58
2023/07/13 05:18:34;;;;;;;;;;;24.70;59.80;;;;;;5092084;28;19924;-58
2023/07/13 05:21:03;;;;;;;;;;;24.50;59.70;;;;;;5073495;28;19925;-57
2023/07/13 05:23:30;;;;;;;;;;;24.40;59.70;;;;;;5076920;28;20032;-58
2023/07/13 05:25:57;;;;;;;;;;;24.30;59.50;;;;;;5082348;28;20381;-59
2023/07/13 05:28:25;;;;;;;;;;;24.10;59.60;;;;;;5085378;28;20028;-59
2023/07/13 05:30:53;;;;;;;;;;;24.10;59.60;;;;;;5073008;28;19928;-59
2023/07/13 05:33:20;;;;;;;;;;;24.00;59.60;;;;;;5075277;28;20019;-59
2023/07/13 05:35:47;;;;;;;;;;;23.90;59.60;;;;;;5078724;28;19987;-58
2023/07/13 05:38:14;;;;;;;;;;;23.90;59.80;;;;;;5073402;28;19928;-59
2023/07/13 05:40:45;;;;;;;;;;;23.80;59.80;;;;;;5076027;28;19924;-58
2023/07/13 05:43:12;;;;;;;;;;;23.70;59.60;;;;;;5072287;28;19928;-60
2023/07/13 05:45:40;;;;;;;;;;;23.70;59.70;;;;;;5076761;28;19977;-60
2023/07/13 05:48:07;;;;;;;;;;;23.60;59.70;;;;;;5079825;28;19982;-58
2023/07/13 05:50:34;;;;;;;;;;;23.60;59.90;;;;;;5077841;28;19928;-58
2023/07/13 05:53:01;;;;;;;;;;;23.60;60.00;;;;;;5074946;28;20114;-57
2023/07/13 05:55:28;;;;;;;;;;;23.60;60.30;;;;;;5078396;28;20423;-57
2023/07/13 05:57:59;;;;;;;;;;;23.60;59.80;;;;;;5079755;28;20015;-58
2023/07/13 06:00:26;;;;;;;;;;;23.50;59.90;;;;;;5079975;28;19946;-59
2023/07/13 06:02:53;;;;;;;;;;;23.50;60.20;;;;;;5077371;28;19936;-58
2023/07/13 06:05:20;;;;;;;;;;;23.50;60.80;;;;;;5081104;28;19924;-58
2023/07/13 06:07:47;;;;;;;;;;;23.50;61.00;;;;;;5080178;28;19962;-59
2023/07/13 06:10:14;;;;;;;;;;;23.40;61.10;;;;;;5083739;28;19928;-58
2023/07/13 06:12:41;;;;;;;;;;;23.40;61.20;;;;;;5070733;28;20027;-57
2023/07/13 06:15:08;;;;;;;;;;;23.40;60.90;;;;;;5077692;28;19924;-57
2023/07/13 06:17:35;;;;;;;;;;;23.40;61.30;;;;;;5075039;28;20312;-57
2023/07/13 06:20:02;;;;;;;;;;;23.30;61.20;;;;;;5078783;28;19940;-57
2023/07/13 06:22:30;;;;;;;;;;;23.30;61.60;;;;;;5078221;28;19935;-58
2023/07/13 06:24:57;;;;;;;;;;;23.30;61.70;;;;;;5075431;28;19932;-58
2023/07/13 06:27:24;;;;;;;;;;;23.30;61.70;;;;;;5082795;28;19936;-57
2023/07/13 06:29:51;;;;;;;;;;;23.30;61.30;;;;;;5088849;28;19932;-57
2023/07/13 06:32:18;;;;;;;;;;;23.30;61.10;;;;;;5081733;28;20022;-56
2023/07/13 06:34:45;;;;;;;;;;;23.30;61.00;;;;;;5077389;28;19997;-57
2023/07/13 06:37:12;;;;;;;;;;;23.20;55.50;;;;;;5080922;28;20015;-56
2023/07/13 06:39:39;;;;;;;;;;;23.00;55.00;;;;;;5079838;28;19932;-57
2023/07/13 06:42:06;;;;;;;;;;;22.80;56.20;;;;;;5076139;28;20430;-57
2023/07/13 06:44:33;;;;;;;;;;;22.60;56.50;;;;;;5078407;28;20019;-56
2023/07/13 06:47:01;;;;;;;;;;;22.40;56.90;;;;;;5091572;28;20011;-56
2023/07/13 06:49:29;;;;;;;;;;;22.30;57.30;;;;;;5077571;28;20048;-56
2023/07/13 06:51:55;;;;;;;;;;;22.20;57.50;;;;;;5075001;28;20007;-60
2023/07/13 06:54:22;;;;;;;;;;;22.00;57.30;;;;;;5082030;28;19933;-57
2023/07/13 06:56:49;;;;;;;;;;;21.90;58.20;;;;;;5079252;28;19924;-58
2023/07/13 06:59:17;;;;;;;;;;;21.90;58.40;;;;;;5079461;28;19977;-58
2023/07/13 07:01:43;;;;;;;;;;;21.80;58.60;;;;;;5077968;28;19942;-58
2023/07/13 07:04:11;;;;;;;;;;;21.80;58.90;;;;;;5074565;28;19931;-57
2023/07/13 07:06:38;;;;;;;;;;;21.70;59.50;;;;;;5070513;28;19928;-58
2023/07/13 07:09:05;;;;;;;;;;;21.70;59.40;;;;;;5074833;28;20019;-60
2023/07/13 07:11:33;;;;;;;;;;;21.60;59.60;;;;;;5079336;28;20271;-57
2023/07/13 07:14:00;;;;;;;;;;;21.60;59.40;;;;;;5071789;28;19964;-57
2023/07/13 07:16:27;;;;;;;;;;;21.60;59.70;;;;;;5077777;28;19936;-56
2023/07/13 07:18:54;;;;;;;;;;;21.60;59.80;;;;;;5075432;28;19984;-58
2023/07/13 07:21:23;;;;;;;;;;;21.60;59.80;;;;;;5075966;28;19928;-58
2023/07/13 07:23:51;;;;;;;;;;;21.60;59.70;;;;;;5077075;28;19982;-62
2023/07/13 07:26:18;;;;;;;;;;;21.60;59.80;;;;;;5075665;28;19928;-58
2023/07/13 07:28:45;;;;;;;;;;;21.60;59.90;;;;;;5078364;28;19985;-58
2023/07/13 07:31:32;;;;;;;;;;;21.60;60.40;;;;;;5078419;28;20380;-57
2023/07/13 07:34:03;;;;;;;;;;;21.60;60.50;;;;;;5079646;28;19924;-58
2023/07/13 07:36:30;;;;;;;;;;;21.70;59.90;;;;;;5080841;28;19928;-58
2023/07/13 07:38:59;;;;;;;;;;;21.70;60.00;;;;;;5076042;28;20011;-58
2023/07/13 07:41:26;;;;;;;;;;;21.70;60.00;;;;;;5075268;28;19970;-57
2023/07/13 07:43:56;;;;;;;;;;;21.80;59.90;;;;;;5071478;28;19978;-58
2023/07/13 07:46:23;;;;;;;;;;;21.80;59.80;;;;;;5075480;28;20019;-57
2023/07/13 07:48:50;;;;;;;;;;;21.80;60.10;;;;;;5076047;28;19956;-57
2023/07/13 07:51:17;;;;;;;;;;;21.80;60.20;;;;;;5075715;28;20028;-59
2023/07/13 07:53:44;;;;;;;;;;;21.80;60.20;;;;;;5076330;28;20384;-57
2023/07/13 07:56:12;;;;;;;;;;;21.80;60.50;;;;;;5078219;28;19928;-57
2023/07/13 07:58:42;;;;;;;;;;;21.90;60.40;;;;;;5074374;28;20304;-58
2023/07/13 08:01:12;;;;;;;;;;;21.80;60.20;;;;;;5072704;28;19937;-57
2023/07/13 08:03:41;;;;;;;;;;;21.90;60.70;;;;;;5076137;28;20026;-58
2023/07/13 08:06:11;;;;;;;;;;;21.80;60.60;;;;;;5070930;28;19932;-57
2023/07/13 08:08:58;;;;;;;;;;;21.80;60.80;;;;;;5072086;28;19946;-59
2023/07/13 08:11:25;;;;;;;;;;;21.80;61.10;;;;;;5069650;28;19930;-58
2023/07/13 08:13:55;;;;;;;;;;;21.90;60.40;;;;;;5074412;28;19924;-58
2023/07/13 08:16:24;;;;;;;;;;;21.90;60.90;;;;;;5074790;28;19936;-58
2023/07/13 08:18:51;;;;;;;;;;;21.90;60.90;;;;;;5068729;28;20006;-57
2023/07/13 08:21:19;;;;;;;;;;;21.90;60.90;;;;;;5065328;28;20130;-58
2023/07/13 08:23:47;;;;;;;;;;;21.90;61.60;;;;;;5073340;28;19966;-58
2023/07/13 08:26:14;;;;;;;;;;;21.90;61.30;;;;;;5071358;28;20534;-58
2023/07/13 08:28:42;;;;;;;;;;;21.90;61.00;;;;;;5075912;28;19930;-58
2023/07/13 08:31:12;;;;;;;;;;;21.90;60.90;;;;;;5070626;28;20554;-58
2023/07/13 08:33:40;;;;;;;;;;;21.90;60.90;;;;;;5075010;28;19980;-58
2023/07/13 08:36:07;;;;;;;;;;;22.00;60.40;;;;;;5075289;28;19945;-59
2023/07/13 08:38:34;;;;;;;;;;;22.00;60.40;;;;;;5072891;28;20020;-60
2023/07/13 08:41:09;;;;;;;;;;;22.00;60.40;;;;;;5075988;28;19931;-59
2023/07/13 08:43:37;;;;;;;;;;;21.90;60.40;;;;;;5073137;28;19928;-59
2023/07/13 08:46:08;;;;;;;;;;;22.00;60.90;;;;;;5078041;28;20392;-59
2023/07/13 08:48:38;;;;;;;;;;;22.00;60.90;;;;;;5080009;28;20261;-60
2023/07/13 08:51:25;;;;;;;;;;;22.10;60.80;;;;;;5075756;28;20363;-59
2023/07/13 08:53:54;;;;;;;;;;;22.20;60.80;;;;;;5075763;28;20456;-56
2023/07/13 08:56:22;;;;;;;;;;;22.20;60.70;;;;;;5076033;28;20040;-58
2023/07/13 08:58:57;;;;;;;;;;;22.20;61.00;;;;;;5075184;28;19931;-59
2023/07/13 09:01:31;;;;;;;;;;;22.30;60.50;;;;;;5077936;28;20288;-58
2023/07/13 09:04:03;;;;;;;;;;;22.30;60.60;;;;;;5079842;28;20024;-59
2023/07/13 09:06:50;;;;;;;;;;;22.30;60.60;;;;;;5073703;28;20399;-59
2023/07/13 09:09:33;;;;;;;;;;;22.30;60.70;;;;;;5076620;28;19939;-58
2023/07/13 09:12:13;;;;;;;;;;;22.30;60.30;;;;;;5078175;28;19947;-58
2023/07/13 09:14:44;;;;;;;;;;;22.40;60.30;;;;;;5076178;28;19978;-56
2023/07/13 09:17:14;;;;;;;;;;;22.40;60.30;;;;;;5076213;28;19936;-59
2023/07/13 09:19:42;;;;;;;;;;;22.40;60.30;;;;;;5076750;28;19932;-58
2023/07/13 09:22:13;;;;;;;;;;;22.50;60.10;;;;;;5075103;28;20269;-57
2023/07/13 09:25:00;;;;;;;;;;;22.50;60.20;;;;;;5079116;28;19928;-56
2023/07/13 09:27:34;;;;;;;;;;;22.50;60.00;;;;;;5071384;28;20454;-56
2023/07/13 09:30:11;;;;;;;;;;;22.50;59.80;;;;;;5083618;28;20001;-56
2023/07/13 09:32:42;;;;;;;;;;;22.50;59.90;;;;;;5078790;28;19936;-57
2023/07/13 09:35:15;;;;;;;;;;;22.50;60.20;;;;;;5075363;28;19939;-58
2023/07/13 09:37:44;;;;;;;;;;;22.60;59.40;;;;;;5073658;28;19928;-58
2023/07/13 09:40:14;;;;;;;;;;;22.60;59.90;;;;;;5072757;28;19924;-57
2023/07/13 09:42:42;;;;;;;;;;;22.60;59.80;;;;;;5078247;28;20396;-58
2023/07/13 09:45:09;;;;;;;;;;;22.60;59.50;;;;;;5081262;28;20408;-58
2023/07/13 09:47:40;;;;;;;;;;;22.60;59.90;;;;;;5083622;28;19928;-57
2023/07/13 09:50:08;;;;;;;;;;;22.60;59.60;;;;;;5081004;28;19931;-58
2023/07/13 09:52:42;;;;;;;;;;;22.60;59.10;;;;;;5079499;28;20438;-58
2023/07/13 09:55:26;;;;;;;;;;;22.60;59.30;;;;;;5081302;28;19925;-58
2023/07/13 09:57:53;;;;;;;;;;;22.60;59.20;;;;;;5081495;28;19924;-58
2023/07/13 10:00:22;;;;;;;;;;;22.60;59.70;;;;;;5084408;28;20342;-57
2023/07/13 10:02:58;;;;;;;;;;;22.60;59.80;;;;;;5083788;28;19924;-59
2023/07/13 10:05:25;;;;;;;;;;;22.60;59.50;;;;;;5090335;28;19925;-59
2023/07/13 10:07:55;;;;;;;;;;;22.50;59.40;;;;;;5083357;28;19974;-59
2023/07/13 10:10:23;;;;;;;;;;;22.50;59.30;;;;;;5082977;28;19924;-59
2023/07/13 10:12:51;;;;;;;;;;;22.50;58.80;;;;;;5084296;28;20023;-59
2023/07/13 10:15:22;;;;;;;;;;;22.50;59.10;;;;;;5087599;28;20274;-59
2023/07/13 10:17:54;;;;;;;;;;;22.50;59.10;;;;;;5089321;28;19993;-59
2023/07/13 10:20:22;;;;;;;;;;;22.60;58.40;;;;;;5084469;28;19931;-57
2023/07/13 10:23:01;;;;;;;;;;;22.60;58.30;;;;;;5083023;28;20737;-56
2023/07/13 10:25:33;;;;;;;;;;;22.60;58.50;;;;;;5089273;28;19924;-57
2023/07/13 10:28:05;;;;;;;;;;;22.60;58.30;;;;;;5077956;28;19928;-59
2023/07/13 10:30:38;;;;;;;;;;;22.60;58.40;;;;;;5084422;28;20365;-59
2023/07/13 10:33:10;;;;;;;;;;;22.60;58.40;;;;;;5074361;28;19925;-57
2023/07/13 10:35:39;;;;;;;;;;;22.60;58.30;;;;;;5078563;28;19928;-58
2023/07/13 10:38:09;;;;;;;;;;;22.60;58.00;;;;;;5074234;28;19928;-58
2023/07/13 10:40:42;;;;;;;;;;;22.50;58.10;;;;;;5084942;28;19946;-59
2023/07/13 10:43:15;;;;;;;;;;;22.50;58.10;;;;;;5086669;28;19938;-58
2023/07/13 10:45:44;;;;;;;;;;;22.40;58.60;;;;;;5084682;28;19924;-58
2023/07/13 10:48:13;;;;;;;;;;;22.40;57.80;;;;;;5076832;28;19970;-58
2023/07/13 10:50:44;;;;;;;;;;;22.40;58.00;;;;;;5088243;28;19924;-59
2023/07/13 10:53:20;;;;;;;;;;;22.30;58.00;;;;;;5080179;28;19960;-59
2023/07/13 10:56:05;;;;;;;;;;;22.30;57.70;;;;;;5070294;28;19932;-59
2023/07/13 10:58:35;;;;;;;;;;;22.20;58.10;;;;;;5075295;28;19931;-59
2023/07/13 11:01:10;;;;;;;;;;;22.20;58.40;;;;;;5081340;28;19924;-58
2023/07/13 11:03:47;;;;;;;;;;;22.20;58.10;;;;;;5077701;28;19972;-59
2023/07/13 11:06:29;;;;;;;;;;;22.20;58.10;;;;;;5090567;28;19927;-59
2023/07/13 11:08:57;;;;;;;;;;;22.10;58.20;;;;;;5071981;28;20198;-59
2023/07/13 11:11:38;;;;;;;;;;;22.20;57.80;;;;;;5077983;28;19928;-59
2023/07/13 11:14:25;;;;;;;;;;;22.20;58.40;;;;;;5074914;28;19967;-59
2023/07/13 11:16:52;;;;;;;;;;;22.20;58.40;;;;;;5078882;28;19931;-60
2023/07/13 11:19:26;;;;;;;;;;;22.20;59.40;;;;;;5077769;28;20193;-60
2023/07/13 11:22:12;;;;;;;;;;;22.20;59.20;;;;;;5073320;28;19970;-60
2023/07/13 11:25:00;;;;;;;;;;;22.20;59.20;;;;;;5070671;28;19924;-63
2023/07/13 11:27:32;;;;;;;;;;;22.20;59.00;;;;;;5076512;28;20001;-59
2023/07/13 11:30:19;;;;;;;;;;;22.20;59.50;;;;;;5078012;28;20003;-58
2023/07/13 11:32:49;;;;;;;;;;;22.30;60.40;;;;;;5078379;28;20008;-58
2023/07/13 11:35:25;;;;;;;;;;;22.30;60.70;;;;;;5073487;28;19936;-58
2023/07/13 11:37:53;;;;;;;;;;;22.30;60.90;;;;;;5071393;28;20380;-61
2023/07/13 11:40:22;;;;;;;;;;;22.30;60.40;;;;;;5079354;28;19971;-59
2023/07/13 11:42:49;;;;;;;;;;;22.40;60.50;;;;;;5070891;28;19964;-59
2023/07/13 11:45:22;;;;;;;;;;;22.50;60.10;;;;;;5075332;28;20376;-58
2023/07/13 11:48:01;;;;;;;;;;;22.50;60.00;;;;;;5078392;28;19969;-58
2023/07/13 11:50:28;;;;;;;;;;;22.50;59.70;;;;;;5074974;28;19932;-58
2023/07/13 11:52:56;;;;;;;;;;;22.60;60.40;;;;;;5076880;28;19925;-59
2023/07/13 11:55:24;;;;;;;;;;;22.60;60.00;;;;;;5077079;28;19931;-58
2023/07/13 11:57:56;;;;;;;;;;;22.60;59.90;;;;;;5080241;28;20423;-58
2023/07/13 12:00:26;;;;;;;;;;;22.60;60.00;;;;;;5075290;28;20380;-59
2023/07/13 12:02:55;;;;;;;;;;;22.70;59.90;;;;;;5078318;28;19943;-58
2023/07/13 12:05:23;;;;;;;;;;;22.70;59.70;;;;;;5075648;28;20483;-60
2023/07/13 12:07:50;;;;;;;;;;;22.70;60.20;;;;;;5078706;28;19924;-58
2023/07/13 12:10:23;;;;;;;;;;;22.80;59.30;;;;;;5078792;28;19960;-57
2023/07/13 12:12:55;;;;;;;;;;;22.80;59.40;;;;;;5080419;28;19932;-57
2023/07/13 12:15:23;;;;;;;;;;;22.90;59.20;;;;;;5079052;28;20295;-59
2023/07/13 12:17:50;;;;;;;;;;;22.80;59.50;;;;;;5072342;28;19932;-53
2023/07/13 12:20:20;;;;;;;;;;;22.80;59.70;;;;;;5077654;28;20000;-58
2023/07/13 12:22:47;;;;;;;;;;;22.80;59.50;;;;;;5074330;28;19933;-58
2023/07/13 12:25:15;;;;;;;;;;;22.90;59.20;;;;;;5077995;28;20023;-57
2023/07/13 12:27:47;;;;;;;;;;;22.90;59.10;;;;;;5082648;28;20299;-59
2023/07/13 12:30:30;;;;;;;;;;;22.90;58.70;;;;;;5079472;28;19944;-58
2023/07/13 12:33:10;;;;;;;;;;;22.80;58.70;;;;;;5079680;28;20357;-58
2023/07/13 12:35:48;;;;;;;;;;;22.80;59.00;;;;;;5075779;28;20521;-58
2023/07/13 12:38:16;;;;;;;;;;;22.90;58.90;;;;;;5074200;28;20026;-57
2023/07/13 12:40:43;;;;;;;;;;;22.90;58.90;;;;;;5071334;28;19939;-60
2023/07/13 12:43:11;;;;;;;;;;;22.90;58.70;;;;;;5076623;28;19960;-59
2023/07/13 12:45:38;;;;;;;;;;;22.90;58.40;;;;;;5072627;28;20042;-56
2023/07/13 12:48:12;;;;;;;;;;;22.90;58.70;;;;;;5077486;28;20381;-57
2023/07/13 12:50:43;;;;;;;;;;;22.90;58.30;;;;;;5079319;28;20385;-57
2023/07/13 12:53:13;;;;;;;;;;;22.90;58.10;;;;;;5072468;28;19928;-58
2023/07/13 12:55:42;;;;;;;;;;;22.90;58.60;;;;;;5075205;28;20007;-57
2023/07/13 12:58:13;;;;;;;;;;;22.90;58.50;;;;;;5084573;28;20296;-58
2023/07/13 13:00:40;;;;;;;;;;;22.90;58.00;;;;;;5077189;28;20384;-58
2023/07/13 13:03:17;;;;;;;;;;;22.90;58.20;;;;;;5074386;28;19959;-57
2023/07/13 13:06:00;;;;;;;;;;;22.90;58.10;;;;;;5070814;28;19924;-59
2023/07/13 13:08:28;;;;;;;;;;;22.90;57.80;;;;;;5075646;28;19939;-54
2023/07/13 13:10:55;;;;;;;;;;;22.90;57.90;;;;;;5075473;28;19923;-57
2023/07/13 13:13:22;;;;;;;;;;;22.90;57.80;;;;;;5073803;28;19928;-57
2023/07/13 13:15:49;;;;;;;;;;;22.90;57.80;;;;;;5078452;28;20011;-59
2023/07/13 13:18:17;;;;;;;;;;;22.90;60.30;;;;;;5072400;28;19967;-59
2023/07/13 13:20:46;;;;;;;;;;;23.10;60.60;;;;;;5071411;28;20048;-59
2023/07/13 13:23:17;;;;;;;;;;;23.30;59.90;;;;;;5083016;28;20033;-59
2023/07/13 13:25:46;;;;;;;;;;;23.50;59.50;;;;;;5072844;28;19930;-60
2023/07/13 13:28:17;;;;;;;;;;;23.60;59.10;;;;;;5069860;28;20011;-59
2023/07/13 13:30:45;;;;;;;;;;;23.70;58.70;;;;;;5075703;28;20030;-59
2023/07/13 13:33:13;;;;;;;;;;;23.70;58.40;;;;;;5075482;28;19932;-58
2023/07/13 13:35:41;;;;;;;;;;;23.80;58.40;;;;;;5083395;28;20367;-59
2023/07/13 13:38:14;;;;;;;;;;;23.80;58.20;;;;;;5080891;28;19924;-59
2023/07/13 13:40:42;;;;;;;;;;;23.90;58.00;;;;;;5073268;28;20284;-58
2023/07/13 13:43:15;;;;;;;;;;;23.90;57.70;;;;;;5078949;28;19982;-59
2023/07/13 13:45:42;;;;;;;;;;;23.90;57.50;;;;;;5079054;28;20373;-59
2023/07/13 13:48:17;;;;;;;;;;;23.90;57.30;;;;;;5077703;28;19940;-59
2023/07/13 13:50:45;;;;;;;;;;;23.90;57.20;;;;;;5079476;28;19928;-59
2023/07/13 13:53:15;;;;;;;;;;;23.90;57.40;;;;;;5075702;28;19981;-59
2023/07/13 13:55:43;;;;;;;;;;;23.90;57.10;;;;;;5078918;28;19930;-59
2023/07/13 13:58:12;;;;;;;;;;;23.80;57.10;;;;;;5069198;28;20283;-59
2023/07/13 14:00:39;;;;;;;;;;;23.80;56.90;;;;;;5073388;28;19933;-60
2023/07/13 14:03:14;;;;;;;;;;;23.80;57.00;;;;;;5078372;28;19928;-59
2023/07/13 14:05:41;;;;;;;;;;;23.80;63.90;;;;;;5079870;28;19978;-59
2023/07/13 14:08:12;;;;;;;;;;;23.90;67.80;;;;;;5075244;28;19932;-59
2023/07/13 14:10:39;;;;;;;;;;;24.10;69.40;;;;;;5077024;28;19978;-60
2023/07/13 14:13:17;;;;;;;;;;;24.20;71.00;;;;;;5077469;28;19924;-59
2023/07/13 14:15:44;;;;;;;;;;;24.30;70.60;;;;;;5077815;28;19978;-60
2023/07/13 14:18:11;;;;;;;;;;;24.40;71.60;;;;;;5080722;28;19978;-58
2023/07/13 14:20:38;;;;;;;;;;;24.50;72.20;;;;;;5073140;28;19932;-58
2023/07/13 14:23:05;;;;;;;;;;;24.60;71.80;;;;;;5074146;28;19932;-59
2023/07/13 14:25:32;;;;;;;;;;;24.70;71.70;;;;;;5079541;28;19932;-58
2023/07/13 14:28:00;;;;;;;;;;;24.80;71.90;;;;;;5079101;28;20058;-58
2023/07/13 14:30:27;;;;;;;;;;;24.90;71.90;;;;;;5075445;28;19978;-58
2023/07/13 14:32:54;;;;;;;;;;;25.00;71.50;;;;;;5073406;28;20018;-58
2023/07/13 14:35:23;;;;;;;;;;;25.10;71.20;;;;;;5074095;28;20024;-58
2023/07/13 14:37:50;;;;;;;;;;;25.30;70.80;;;;;;5086899;28;19924;-58
2023/07/13 14:40:22;;;;;;;;;;;25.30;70.40;;;;;;5087338;28;20074;-59
2023/07/13 14:42:49;;;;;;;;;;;25.40;70.00;;;;;;5073676;28;19968;-57
2023/07/13 14:45:18;;;;;;;;;;;25.50;69.70;;;;;;5073890;28;20467;-58
2023/07/13 14:47:46;;;;;;;;;;;25.50;69.60;;;;;;5072595;28;19925;-56
2023/07/13 14:50:18;;;;;;;;;;;25.60;69.50;;;;;;5074019;28;19924;-55
2023/07/13 14:52:45;;;;;;;;;;;25.70;69.30;;;;;;5074675;28;19925;-56
2023/07/13 14:55:14;;;;;;;;;;;25.70;68.90;;;;;;5074032;28;19950;-55
2023/07/13 14:57:41;;;;;;;;;;;25.80;68.50;;;;;;5075027;28;19967;-56
2023/07/13 15:00:16;;;;;;;;;;;25.80;68.30;;;;;;5074571;28;19982;-55
2023/07/13 15:02:45;;;;;;;;;;;25.80;68.20;;;;;;5075033;28;20273;-57
2023/07/13 15:05:13;;;;;;;;;;;25.80;68.10;;;;;;5074547;28;19928;-56
2023/07/13 15:07:40;;;;;;;;;;;25.90;68.10;;;;;;5074785;28;19928;-56
2023/07/13 15:10:14;;;;;;;;;;;25.90;68.00;;;;;;5074878;28;19924;-56
2023/07/13 15:12:41;;;;;;;;;;;25.90;67.80;;;;;;5074700;28;19971;-55
2023/07/13 15:15:08;;;;;;;;;;;25.90;67.80;;;;;;5074439;28;19997;-58
2023/07/13 15:17:37;;;;;;;;;;;25.90;67.70;;;;;;5074700;28;20019;-51
2023/07/13 15:20:06;;;;;;;;;;;26.00;68.20;;;;;;5073712;28;19925;-54
2023/07/13 15:22:33;;;;;;;;;;;26.00;67.80;;;;;;5073291;28;19963;-57
2023/07/13 15:25:00;;;;;;;;;;;26.00;68.00;;;;;;5073254;28;20396;-57
2023/07/13 15:27:30;;;;;;;;;;;26.00;68.00;;;;;;5074451;28;19928;-57